Jacksonville Municipal Airport

About
Name: Jacksonville Municipal Airport
Identifier:  IJX/KIJX
Local Time:  18. Aug 12:51 CDT
Location
Jacksonville
  United States

Flights per Day
0 flights
Distance: 1,078km (670mi)
Punctuality
66% (0 flights per day delayed)
Delay Average: 11 minutes
Current Weather
 26 C (Humidity: 65%)
  8kt (14km/h / 9mph) from 120°
  16km (10 mi.)
 
 METAR KIJX 181715Z AUTO 12008KT 10SM CLR 26/19 A2989 RMK AO2 T02600194

Current Flights

Departures
Number Departure To Airline
Arrivals
Number Arrival From Airline

Current Delays

Departures
N/A
Arrivals
N/A

Destinations

Top Destinations
Airport Flights
per week
Seats
per week
  Gary (GYY) 0 - 0 0
  Sioux Falls (FSD) 0 - 0 0
  Pittsburgh (PIT) 0 - 0 0
  Laporte (LPO) 0 - 0 0
  Kansas City (MKC) 0 - 0 0
  Rogers (ROG) 0 - 0 0
  Cincinnati (LUK) 0 - 0 0
  Chicago (UGN) 0 - 0 0
  Bloomington (BMI) 0 - 0 0
  Lincoln (LNK) 0 - 0 0
  Keokuk (EOK) 0 - 0 0
  Lexington (LEX) 0 - 0 0

Airlines & Planes

Top Airlines
Airline Flights
per Day
Seats
per Day
Jet Charter Inc ( Franklin Lakes Nj ) 0 -
  Novair 0 -
Nordwind Airlines 0 -
  Nolinor Aviation 0 -
Flexjet 0 -
Top Plane Types
Model Flights Seats
Piper PA28R-201T Turbo Arrow IV 0.1/day - 0
Piper PA-46-350P Malibu Mirage 0.1/day - 0
Piper PA28-181 0.1/day - 0
Bombardier Challenger 300 0.0/day - 0
Cessna C182 0.0/day - 0